Time;durP1;ratioP1;P1;durP2;ratioP2;P2;SDS_P1;SDS_P2;PMS_P1;PMS_P2;Temp;Humidity;BMP_temperature;BMP_pressure;BME280_temperature;BME280_humidity;BME280_pressure;Samples;Min_cycle;Max_cycle;Signal;HPM_P1;HPM_P2
2022/03/05 00:02:04;;;;;;;22.20;9.30;;;4.30;94.20;;;;;;5041995;28;20220;-69
2022/03/05 00:04:29;;;;;;;25.83;10.67;;;4.30;94.30;;;;;;5026500;28;20705;-69
2022/03/05 00:06:55;;;;;;;14.80;9.13;;;4.30;94.20;;;;;;5035295;28;20687;-69
2022/03/05 00:09:21;;;;;;;17.17;8.47;;;4.20;94.10;;;;;;5033070;28;20217;-68
2022/03/05 00:11:46;;;;;;;21.00;8.90;;;4.20;94.00;;;;;;5033064;28;20221;-69
2022/03/05 00:14:12;;;;;;;17.17;8.60;;;4.20;94.00;;;;;;5033366;28;20216;-69
2022/03/05 00:16:38;;;;;;;15.57;7.73;;;4.10;94.30;;;;;;5033406;28;20283;-71
2022/03/05 00:19:04;;;;;;;15.50;8.20;;;4.10;94.30;;;;;;5014204;28;20484;-69
2022/03/05 00:21:30;;;;;;;20.23;8.60;;;4.10;94.20;;;;;;5021289;28;21028;-68
2022/03/05 00:23:56;;;;;;;21.47;8.80;;;4.00;94.30;;;;;;5028337;28;20641;-69
2022/03/05 00:26:21;;;;;;;21.87;8.00;;;3.90;94.40;;;;;;5031999;28;20247;-68
2022/03/05 00:28:47;;;;;;;19.33;8.43;;;4.00;94.40;;;;;;5027441;28;20219;-69
2022/03/05 00:31:13;;;;;;;18.13;7.77;;;3.90;93.90;;;;;;5020807;28;20220;-70
2022/03/05 00:33:39;;;;;;;20.60;7.60;;;3.90;94.00;;;;;;5044835;28;20702;-68
2022/03/05 00:36:06;;;;;;;18.47;8.37;;;3.90;94.20;;;;;;5023626;28;20488;-69
2022/03/05 00:38:31;;;;;;;17.80;8.03;;;3.90;94.00;;;;;;5033329;28;20648;-68
2022/03/05 00:40:57;;;;;;;11.70;6.57;;;3.90;94.00;;;;;;5013244;28;20463;-69
2022/03/05 00:43:23;;;;;;;17.50;6.83;;;3.90;94.00;;;;;;5024680;28;20219;-68
2022/03/05 00:45:49;;;;;;;12.10;6.27;;;3.90;94.10;;;;;;5036063;28;20228;-69
2022/03/05 00:48:14;;;;;;;16.20;7.60;;;3.80;94.00;;;;;;5039250;28;20299;-67
2022/03/05 00:50:41;;;;;;;17.77;6.47;;;3.80;94.40;;;;;;5032261;28;20228;-71
2022/03/05 00:53:10;;;;;;;16.17;6.17;;;3.80;93.90;;;;;;5043580;28;20455;-67
2022/03/05 00:55:36;;;;;;;11.67;6.47;;;3.80;94.00;;;;;;5027523;28;20212;-68
2022/03/05 00:58:02;;;;;;;25.20;8.20;;;3.80;94.20;;;;;;5038399;28;20996;-68
2022/03/05 01:00:28;;;;;;;21.17;8.23;;;3.80;93.90;;;;;;5043176;28;20454;-68
2022/03/05 01:02:54;;;;;;;14.63;7.10;;;3.70;93.90;;;;;;5050580;28;20537;-70
2022/03/05 01:05:19;;;;;;;16.47;7.17;;;3.80;94.10;;;;;;5033372;28;20702;-68
2022/03/05 01:07:45;;;;;;;12.43;7.50;;;3.70;94.20;;;;;;5029650;28;20231;-68
2022/03/05 01:10:11;;;;;;;13.80;6.70;;;3.70;94.30;;;;;;5023589;28;20220;-70
2022/03/05 01:12:36;;;;;;;17.80;7.40;;;3.80;94.10;;;;;;5010193;28;20252;-70
2022/03/05 01:15:04;;;;;;;16.77;7.60;;;3.70;94.10;;;;;;5021292;28;20223;-69
2022/03/05 01:17:29;;;;;;;15.20;6.30;;;3.70;94.10;;;;;;5034096;28;20223;-70
2022/03/05 01:19:55;;;;;;;16.27;6.30;;;3.70;94.10;;;;;;5016399;28;20463;-69
2022/03/05 01:22:21;;;;;;;12.80;6.27;;;3.70;94.00;;;;;;5022156;28;20233;-69
2022/03/05 01:24:46;;;;;;;15.83;7.37;;;3.70;94.00;;;;;;5043869;28;20213;-70
2022/03/05 01:27:12;;;;;;;14.30;7.17;;;3.70;94.20;;;;;;5050058;28;20639;-69
2022/03/05 01:29:38;;;;;;;8.80;5.50;;;3.70;94.00;;;;;;5038502;28;20220;-68
2022/03/05 01:32:04;;;;;;;9.70;4.97;;;3.70;94.00;;;;;;5017465;28;20684;-69
2022/03/05 01:34:30;;;;;;;14.73;6.37;;;3.70;94.10;;;;;;5027473;28;20222;-70
2022/03/05 01:36:56;;;;;;;12.73;5.97;;;3.70;94.10;;;;;;4994086;28;20913;-69
2022/03/05 01:39:21;;;;;;;16.10;6.53;;;3.70;94.00;;;;;;5010547;28;20224;-68
2022/03/05 01:41:53;;;;;;;17.87;6.47;;;3.60;93.90;;;;;;5036381;28;20294;-70
2022/03/05 01:44:20;;;;;;;11.50;6.47;;;3.60;94.00;;;;;;5025993;28;20217;-67
2022/03/05 01:46:45;;;;;;;12.43;6.17;;;3.60;94.20;;;;;;5013981;28;20446;-70
2022/03/05 01:49:13;;;;;;;16.50;6.53;;;3.60;94.30;;;;;;5027535;28;20859;-70
2022/03/05 01:51:40;;;;;;;19.83;6.67;;;3.60;94.20;;;;;;5022704;28;20228;-68
2022/03/05 01:54:06;;;;;;;13.23;5.23;;;3.60;94.10;;;;;;5032778;28;21068;-69
2022/03/05 01:56:33;;;;;;;15.30;7.00;;;3.50;93.80;;;;;;5007374;28;20462;-70
2022/03/05 01:59:00;;;;;;;10.97;6.63;;;3.40;93.60;;;;;;5050612;28;20463;-69
2022/03/05 02:01:28;;;;;;;15.13;6.87;;;3.40;94.00;;;;;;5040280;28;20552;-69
2022/03/05 02:03:55;;;;;;;13.73;6.10;;;3.40;94.30;;;;;;5034289;28;20532;-68
2022/03/05 02:06:21;;;;;;;15.10;6.77;;;3.40;93.90;;;;;;5050968;28;20462;-69
2022/03/05 02:08:48;;;;;;;15.90;6.10;;;3.40;94.20;;;;;;5051088;28;20466;-69
2022/03/05 02:11:13;;;;;;;16.10;5.77;;;3.30;94.00;;;;;;5013636;28;20458;-68
2022/03/05 02:13:41;;;;;;;14.93;7.30;;;3.30;93.90;;;;;;5039973;28;20537;-68
2022/03/05 02:16:06;;;;;;;17.80;6.27;;;3.30;93.70;;;;;;5039101;28;20304;-70
2022/03/05 02:18:32;;;;;;;14.57;6.63;;;3.30;94.00;;;;;;5010120;28;20559;-68
2022/03/05 02:20:58;;;;;;;9.97;7.10;;;3.30;93.80;;;;;;5016499;28;20217;-68
2022/03/05 02:23:24;;;;;;;19.97;6.40;;;3.30;94.00;;;;;;5013149;28;20471;-68
2022/03/05 02:25:55;;;;;;;13.77;5.97;;;3.30;93.90;;;;;;5011688;28;20225;-69
2022/03/05 02:28:22;;;;;;;13.07;6.00;;;3.30;93.80;;;;;;5039568;28;20451;-68
2022/03/05 02:30:48;;;;;;;16.57;5.63;;;3.20;93.90;;;;;;5032873;28;20454;-71
2022/03/05 02:33:14;;;;;;;12.50;6.27;;;3.10;94.00;;;;;;5045386;28;20505;-69
2022/03/05 02:35:40;;;;;;;11.83;5.97;;;3.10;94.10;;;;;;5003241;28;20829;-68
2022/03/05 02:38:05;;;;;;;12.87;6.57;;;3.10;94.10;;;;;;5026479;28;20455;-70
2022/03/05 02:40:33;;;;;;;11.47;6.13;;;3.10;94.10;;;;;;5012870;28;20205;-69
2022/03/05 02:42:59;;;;;;;14.10;4.90;;;3.00;93.90;;;;;;5012772;28;20535;-70
2022/03/05 02:45:25;;;;;;;17.73;7.10;;;3.00;94.00;;;;;;5013051;28;20532;-68
2022/03/05 02:47:51;;;;;;;14.03;6.60;;;3.00;93.90;;;;;;5049982;28;20211;-68
2022/03/05 02:50:16;;;;;;;9.33;6.17;;;3.00;94.00;;;;;;5031151;28;20467;-69
2022/03/05 02:52:42;;;;;;;8.93;4.40;;;3.00;94.00;;;;;;5009258;28;20232;-68
2022/03/05 02:55:08;;;;;;;18.83;6.73;;;3.00;94.00;;;;;;5011878;28;20231;-68
2022/03/05 02:57:34;;;;;;;13.70;5.67;;;3.00;93.90;;;;;;5030117;28;20220;-68
2022/03/05 02:59:59;;;;;;;14.13;6.47;;;3.00;94.00;;;;;;5026132;28;20487;-68
2022/03/05 03:02:26;;;;;;;15.90;6.43;;;3.00;94.00;;;;;;4995904;28;20224;-68
2022/03/05 03:04:52;;;;;;;9.97;5.20;;;3.00;94.10;;;;;;5033437;28;20219;-69
2022/03/05 03:07:18;;;;;;;14.43;4.83;;;3.00;94.00;;;;;;5032301;28;20825;-70
2022/03/05 03:09:43;;;;;;;13.90;6.07;;;3.00;94.30;;;;;;5043086;28;20223;-68
2022/03/05 03:12:09;;;;;;;13.97;5.00;;;3.00;94.10;;;;;;5002633;28;20252;-69
2022/03/05 03:14:35;;;;;;;10.97;6.20;;;2.90;94.40;;;;;;5035060;28;20226;-69
2022/03/05 03:17:01;;;;;;;16.03;5.50;;;3.00;94.40;;;;;;5031563;28;20451;-68
2022/03/05 03:19:26;;;;;;;11.87;6.00;;;2.90;94.40;;;;;;5023605;28;20230;-68
2022/03/05 03:21:52;;;;;;;14.20;5.83;;;2.90;94.40;;;;;;5030491;28;20231;-68
2022/03/05 03:24:17;;;;;;;13.17;5.90;;;2.90;94.30;;;;;;5033611;28;20243;-72
2022/03/05 03:26:45;;;;;;;13.63;5.60;;;2.90;94.40;;;;;;5012106;28;20248;-68
2022/03/05 03:29:12;;;;;;;15.83;5.37;;;2.90;95.20;;;;;;5028774;28;20239;-68
2022/03/05 03:31:38;;;;;;;16.00;7.03;;;2.90;95.00;;;;;;5012630;28;20975;-69
2022/03/05 03:34:04;;;;;;;13.33;5.83;;;2.90;95.00;;;;;;5048198;28;20231;-70
2022/03/05 03:36:30;;;;;;;17.70;7.50;;;2.90;95.10;;;;;;5035621;28;20447;-69
2022/03/05 03:38:56;;;;;;;13.63;5.33;;;2.90;95.30;;;;;;5035652;28;20481;-69
2022/03/05 03:41:22;;;;;;;20.37;6.57;;;2.90;95.30;;;;;;5027319;28;20447;-69
2022/03/05 03:43:48;;;;;;;9.40;6.17;;;2.90;95.20;;;;;;5007010;28;21015;-69
2022/03/05 03:46:14;;;;;;;8.80;4.77;;;2.90;95.00;;;;;;5030680;28;20262;-69
2022/03/05 03:48:40;;;;;;;16.20;6.13;;;2.90;94.90;;;;;;5029638;28;20499;-68
2022/03/05 03:51:06;;;;;;;16.33;6.37;;;2.90;94.80;;;;;;5026356;28;20231;-69
2022/03/05 03:53:31;;;;;;;11.60;6.20;;;2.90;95.00;;;;;;5030412;28;20703;-68
2022/03/05 03:55:57;;;;;;;15.33;5.47;;;2.90;94.80;;;;;;5047939;28;20223;-67
2022/03/05 03:58:23;;;;;;;13.50;5.90;;;2.80;94.90;;;;;;5049431;28;20637;-69
2022/03/05 04:00:48;;;;;;;19.53;5.97;;;2.80;95.00;;;;;;5034933;28;20218;-66
2022/03/05 04:03:14;;;;;;;12.47;5.93;;;2.80;95.00;;;;;;5009840;28;20213;-68
2022/03/05 04:05:41;;;;;;;18.43;6.40;;;2.80;94.80;;;;;;4992903;28;20656;-68
2022/03/05 04:10:52;;;;;;;9.47;5.00;;;2.80;94.80;;;;;;5031487;28;20530;-68
2022/03/05 04:13:19;;;;;;;14.10;6.53;;;2.80;94.80;;;;;;5047458;28;20521;-68
2022/03/05 04:15:46;;;;;;;9.80;6.50;;;2.80;94.80;;;;;;5041292;28;20530;-68
2022/03/05 04:18:12;;;;;;;10.30;6.20;;;2.80;94.80;;;;;;5020109;28;20278;-68
2022/03/05 04:20:38;;;;;;;15.73;6.97;;;2.80;94.70;;;;;;5017404;28;20475;-69
2022/03/05 04:23:03;;;;;;;20.70;6.53;;;2.80;94.80;;;;;;5032099;28;20962;-67
2022/03/05 04:25:29;;;;;;;14.77;7.33;;;2.80;94.70;;;;;;5014914;28;20306;-68
2022/03/05 04:27:55;;;;;;;17.03;7.10;;;2.80;94.70;;;;;;5013810;28;20243;-69
2022/03/05 04:30:21;;;;;;;18.27;6.30;;;2.80;94.70;;;;;;5040120;28;20451;-68
2022/03/05 04:32:47;;;;;;;16.70;5.50;;;2.70;94.60;;;;;;5037797;28;20215;-69
2022/03/05 04:35:13;;;;;;;9.30;5.90;;;2.70;94.60;;;;;;5030832;28;20224;-69
2022/03/05 04:37:38;;;;;;;9.70;5.00;;;2.70;94.50;;;;;;5014397;28;20258;-69
2022/03/05 04:40:05;;;;;;;13.97;7.00;;;2.70;94.50;;;;;;5039180;28;20236;-68
2022/03/05 04:42:31;;;;;;;12.93;6.87;;;2.70;94.50;;;;;;5034225;28;20224;-69
2022/03/05 04:44:58;;;;;;;12.97;6.40;;;2.60;94.40;;;;;;5050991;28;20516;-67
2022/03/05 04:47:24;;;;;;;15.67;6.10;;;2.60;94.40;;;;;;5019782;28;20460;-69
2022/03/05 04:49:50;;;;;;;12.73;5.53;;;2.60;94.50;;;;;;5016354;28;20453;-68
2022/03/05 04:52:16;;;;;;;8.77;5.40;;;2.60;94.40;;;;;;5015191;28;20822;-68
2022/03/05 04:54:42;;;;;;;14.00;6.40;;;2.60;94.50;;;;;;5034286;28;20472;-68
2022/03/05 04:57:07;;;;;;;12.27;6.60;;;2.60;94.40;;;;;;5012349;28;20228;-70
2022/03/05 04:59:33;;;;;;;9.47;5.60;;;2.60;94.50;;;;;;5022568;28;20620;-68
2022/03/05 05:02:00;;;;;;;12.97;5.80;;;2.50;94.30;;;;;;5006438;28;20232;-69
2022/03/05 05:04:26;;;;;;;13.27;6.60;;;2.50;94.40;;;;;;5032308;28;20534;-69
2022/03/05 05:06:51;;;;;;;13.90;6.50;;;2.50;94.30;;;;;;5014179;28;20823;-68
2022/03/05 05:09:17;;;;;;;12.33;5.40;;;2.40;94.40;;;;;;5016132;28;20546;-68
2022/03/05 05:11:43;;;;;;;15.37;6.87;;;2.30;94.70;;;;;;5047328;28;20219;-68
2022/03/05 05:14:09;;;;;;;15.20;6.80;;;2.30;94.30;;;;;;4997805;28;20472;-68
2022/03/05 05:16:35;;;;;;;10.77;6.10;;;2.30;94.40;;;;;;5014534;28;20228;-68
2022/03/05 05:21:45;;;;;;;14.60;7.30;;;2.30;94.30;;;;;;5025138;28;20212;-67
2022/03/05 05:24:10;;;;;;;12.90;6.00;;;2.30;94.40;;;;;;5046508;28;20451;-69
2022/03/05 05:26:36;;;;;;;13.47;5.90;;;2.30;94.50;;;;;;5013835;28;20216;-69
2022/03/05 05:29:02;;;;;;;17.23;7.47;;;2.30;94.40;;;;;;5027768;28;20225;-66
2022/03/05 05:31:28;;;;;;;17.03;6.90;;;2.30;94.40;;;;;;4994832;28;20622;-68
2022/03/05 05:33:54;;;;;;;11.57;5.57;;;2.30;94.50;;;;;;5038093;28;20450;-66
2022/03/05 05:36:19;;;;;;;15.97;6.50;;;2.30;94.50;;;;;;5000340;28;20220;-68
2022/03/05 05:38:45;;;;;;;21.13;7.03;;;2.20;94.50;;;;;;5008761;28;20606;-69
2022/03/05 05:41:12;;;;;;;13.53;6.13;;;2.20;94.40;;;;;;4995558;28;20228;-67
2022/03/05 05:43:38;;;;;;;20.20;7.57;;;2.20;94.50;;;;;;5038221;28;20219;-67
2022/03/05 05:46:04;;;;;;;14.17;6.30;;;2.20;94.60;;;;;;5050477;28;20451;-67
2022/03/05 05:48:30;;;;;;;11.23;5.37;;;2.20;94.60;;;;;;5012285;28;20221;-65
2022/03/05 05:50:55;;;;;;;10.10;4.97;;;2.10;94.70;;;;;;5035371;28;20302;-68
2022/03/05 05:53:22;;;;;;;14.13;7.30;;;2.20;94.80;;;;;;5037999;28;20242;-67
2022/03/05 05:55:48;;;;;;;17.07;7.00;;;2.20;94.70;;;;;;5011640;28;20228;-70
2022/03/05 05:58:13;;;;;;;16.57;7.13;;;2.10;94.80;;;;;;5013475;28;20432;-68
2022/03/05 06:00:39;;;;;;;15.47;6.40;;;2.10;94.60;;;;;;5017246;28;20270;-66
2022/03/05 06:03:04;;;;;;;12.90;6.50;;;2.10;95.00;;;;;;5030125;28;20216;-66
2022/03/05 06:05:31;;;;;;;14.13;6.80;;;2.10;94.80;;;;;;5009214;28;20216;-67
2022/03/05 06:07:57;;;;;;;20.63;6.77;;;2.10;94.90;;;;;;5031756;28;20212;-66
2022/03/05 06:10:22;;;;;;;12.83;5.87;;;2.10;94.90;;;;;;5045266;28;20471;-68
2022/03/05 06:12:49;;;;;;;15.70;6.93;;;2.10;94.80;;;;;;5013959;28;20224;-67
2022/03/05 06:15:15;;;;;;;15.63;6.30;;;2.10;94.80;;;;;;5023741;28;20302;-67
2022/03/05 06:17:42;;;;;;;15.00;7.03;;;2.10;94.60;;;;;;5029913;28;20875;-66
2022/03/05 06:20:08;;;;;;;23.83;7.50;;;2.10;94.60;;;;;;5004585;28;20506;-67
2022/03/05 06:22:34;;;;;;;17.20;7.87;;;2.10;94.90;;;;;;5012621;28;20466;-66
2022/03/05 06:25:00;;;;;;;15.33;7.00;;;2.10;94.90;;;;;;5012449;28;20459;-67
2022/03/05 06:27:25;;;;;;;15.30;7.30;;;2.10;94.90;;;;;;5013003;28;20221;-67
2022/03/05 06:29:51;;;;;;;12.40;5.13;;;2.10;94.80;;;;;;5012464;28;20232;-67
2022/03/05 06:32:17;;;;;;;14.10;6.33;;;2.10;94.90;;;;;;5010071;28;20827;-67
2022/03/05 06:34:43;;;;;;;15.10;8.10;;;2.10;95.00;;;;;;5025569;28;20225;-68
2022/03/05 06:37:08;;;;;;;23.13;7.90;;;2.00;95.20;;;;;;4986639;28;20221;-67
2022/03/05 06:39:34;;;;;;;14.13;6.90;;;2.00;94.90;;;;;;5008976;28;20327;-67
2022/03/05 06:42:00;;;;;;;14.40;7.20;;;2.00;95.00;;;;;;4994484;28;20224;-67
2022/03/05 06:44:25;;;;;;;16.20;6.87;;;2.00;95.10;;;;;;5025689;28;20221;-68
2022/03/05 06:46:51;;;;;;;16.73;7.50;;;2.00;95.10;;;;;;5025929;28;20217;-65
2022/03/05 06:49:17;;;;;;;17.40;6.50;;;2.00;95.00;;;;;;4989481;28;20218;-66
2022/03/05 06:51:42;;;;;;;13.27;7.20;;;2.00;95.00;;;;;;4991715;28;20225;-67
2022/03/05 06:54:08;;;;;;;17.07;7.60;;;2.00;95.10;;;;;;4992185;28;20221;-67
2022/03/05 06:56:34;;;;;;;15.10;7.17;;;2.00;95.10;;;;;;5000896;28;20214;-68
2022/03/05 06:58:59;;;;;;;14.50;7.17;;;2.00;95.10;;;;;;4986707;28;20733;-67
2022/03/05 07:01:25;;;;;;;21.13;9.67;;;2.00;95.10;;;;;;4993401;28;20221;-67
2022/03/05 07:03:50;;;;;;;17.30;8.17;;;2.00;95.10;;;;;;5008503;28;20217;-66
2022/03/05 07:06:16;;;;;;;15.27;7.50;;;2.00;95.30;;;;;;5003365;28;20221;-68
2022/03/05 07:08:42;;;;;;;10.47;6.60;;;2.00;95.70;;;;;;4977174;28;20225;-68
2022/03/05 07:11:07;;;;;;;15.17;7.27;;;2.00;95.40;;;;;;5019249;28;20762;-67
2022/03/05 07:13:34;;;;;;;13.20;6.17;;;2.00;95.50;;;;;;5009188;28;20282;-67
2022/03/05 07:16:00;;;;;;;17.00;6.40;;;2.00;95.60;;;;;;4995565;28;20225;-67
2022/03/05 07:18:26;;;;;;;12.73;6.07;;;2.00;95.60;;;;;;5020561;28;20811;-67
2022/03/05 07:20:51;;;;;;;14.43;6.53;;;2.00;95.70;;;;;;5029460;28;20448;-67
2022/03/05 07:23:17;;;;;;;15.00;8.20;;;2.00;96.00;;;;;;5024381;28;20419;-67
2022/03/05 07:25:43;;;;;;;24.23;10.13;;;2.10;95.90;;;;;;5003614;28;20209;-67
2022/03/05 07:28:10;;;;;;;40.63;14.80;;;2.10;96.00;;;;;;5002905;28;20220;-68
2022/03/05 07:30:37;;;;;;;38.30;15.33;;;2.10;96.10;;;;;;5007783;28;20764;-66
2022/03/05 07:33:04;;;;;;;33.13;11.30;;;2.10;96.20;;;;;;5011080;28;20978;-69
2022/03/05 07:35:29;;;;;;;26.77;12.73;;;2.10;96.40;;;;;;5029130;28;20455;-67
2022/03/05 07:37:55;;;;;;;25.43;10.73;;;2.20;96.70;;;;;;5027782;28;20526;-68
2022/03/05 07:40:21;;;;;;;20.27;11.20;;;2.20;96.70;;;;;;4999529;28;20603;-70
2022/03/05 07:42:46;;;;;;;29.83;11.47;;;2.20;96.80;;;;;;5029270;28;20359;-67
2022/03/05 07:45:12;;;;;;;37.83;13.20;;;2.30;97.10;;;;;;5011303;28;20289;-67
2022/03/05 07:47:38;;;;;;;33.20;14.97;;;2.30;97.30;;;;;;5011637;28;20282;-68
2022/03/05 07:50:05;;;;;;;31.87;15.83;;;2.30;97.20;;;;;;5023203;28;20258;-67
2022/03/05 07:52:30;;;;;;;36.93;16.70;;;2.40;97.60;;;;;;5014026;28;20459;-67
2022/03/05 07:54:56;;;;;;;36.27;14.43;;;2.40;98.00;;;;;;5032645;28;20981;-66
2022/03/05 07:57:22;;;;;;;27.43;12.57;;;2.50;98.10;;;;;;5033714;28;20222;-67
2022/03/05 07:59:48;;;;;;;23.97;13.50;;;2.50;98.20;;;;;;5015083;28;20236;-66
2022/03/05 08:02:15;;;;;;;18.13;10.07;;;2.60;98.50;;;;;;5016313;28;20538;-67
2022/03/05 08:04:44;;;;;;;21.93;11.00;;;2.60;98.30;;;;;;5013240;28;20224;-65
2022/03/05 08:07:10;;;;;;;24.57;11.10;;;2.70;98.40;;;;;;5017362;28;20469;-68
2022/03/05 08:09:36;;;;;;;23.40;9.80;;;2.70;98.60;;;;;;5020207;28;20457;-69
2022/03/05 08:12:05;;;;;;;17.67;8.60;;;2.70;98.60;;;;;;5027517;28;20862;-68
2022/03/05 08:14:30;;;;;;;23.37;8.93;;;2.80;98.80;;;;;;5031722;28;20228;-69
2022/03/05 08:16:56;;;;;;;20.90;9.30;;;2.80;99.10;;;;;;5024380;28;20455;-66
2022/03/05 08:19:22;;;;;;;18.27;8.77;;;2.90;99.30;;;;;;5020996;28;20228;-67
2022/03/05 08:21:48;;;;;;;15.40;6.90;;;2.90;99.10;;;;;;5030725;28;20302;-70
2022/03/05 08:24:13;;;;;;;17.33;8.40;;;3.00;99.40;;;;;;5008083;28;20212;-70
2022/03/05 08:26:39;;;;;;;17.33;8.47;;;3.00;99.50;;;;;;5030962;28;20735;-69
2022/03/05 08:29:05;;;;;;;17.57;8.47;;;3.10;99.70;;;;;;5029140;28;20215;-70
2022/03/05 08:31:31;;;;;;;19.60;9.03;;;3.10;99.30;;;;;;5010756;28;20319;-70
2022/03/05 08:34:01;;;;;;;23.33;11.70;;;3.20;99.60;;;;;;5028229;28;20213;-68
2022/03/05 08:36:28;;;;;;;27.50;14.00;;;3.20;99.70;;;;;;5030807;28;20498;-70
2022/03/05 08:38:54;;;;;;;32.10;20.20;;;3.30;99.90;;;;;;5026260;28;20483;-70
2022/03/05 08:41:20;;;;;;;30.43;16.17;;;3.40;99.60;;;;;;5010749;28;20445;-70
2022/03/05 08:43:45;;;;;;;23.83;14.10;;;3.40;99.90;;;;;;5011328;28;20447;-69
2022/03/05 08:46:11;;;;;;;28.87;12.57;;;3.50;99.90;;;;;;5028038;28;20275;-68
2022/03/05 08:48:37;;;;;;;23.20;12.67;;;3.60;99.90;;;;;;5025443;28;20224;-69
2022/03/05 08:51:03;;;;;;;19.50;12.63;;;3.70;99.90;;;;;;5009972;28;20228;-69
2022/03/05 08:53:28;;;;;;;23.47;12.40;;;3.80;99.90;;;;;;5025319;28;20213;-69
2022/03/05 08:55:54;;;;;;;22.07;11.67;;;3.80;99.90;;;;;;5022299;28;20460;-68
2022/03/05 08:58:21;;;;;;;23.43;11.87;;;3.90;99.90;;;;;;5021193;28;20598;-70
2022/03/05 09:00:48;;;;;;;28.53;11.30;;;4.00;99.90;;;;;;5024546;28;20205;-69
2022/03/05 09:03:14;;;;;;;19.20;10.60;;;4.00;99.90;;;;;;5004997;28;20971;-69
2022/03/05 09:05:40;;;;;;;19.20;9.87;;;4.10;99.90;;;;;;5007523;28;20505;-68
2022/03/05 09:08:07;;;;;;;17.77;9.90;;;4.10;99.80;;;;;;5011849;28;20458;-69
2022/03/05 09:10:33;;;;;;;17.87;10.97;;;4.10;99.90;;;;;;5029311;28;20573;-69
2022/03/05 09:12:58;;;;;;;19.60;12.00;;;4.10;99.90;;;;;;5029401;28;20827;-69
2022/03/05 09:15:24;;;;;;;23.17;13.40;;;4.20;99.90;;;;;;5026368;28;20243;-69
2022/03/05 09:17:50;;;;;;;27.07;12.27;;;4.30;99.90;;;;;;5012775;28;20802;-70
2022/03/05 09:20:16;;;;;;;16.47;9.17;;;4.30;99.90;;;;;;5009244;28;20692;-70
2022/03/05 09:22:42;;;;;;;25.03;11.20;;;4.40;99.90;;;;;;5009050;28;20224;-69
2022/03/05 09:25:08;;;;;;;15.50;8.70;;;4.40;99.90;;;;;;5023269;28;20467;-70
2022/03/05 09:27:34;;;;;;;18.97;9.13;;;4.50;99.90;;;;;;5005973;28;20220;-69
2022/03/05 09:30:00;;;;;;;19.27;9.27;;;4.60;99.90;;;;;;5023215;28;20518;-69
2022/03/05 09:32:26;;;;;;;16.40;8.90;;;4.70;99.90;;;;;;5024980;28;20221;-69
2022/03/05 09:34:52;;;;;;;23.07;8.70;;;4.70;99.60;;;;;;5020069;28;20672;-70
2022/03/05 09:37:18;;;;;;;12.60;8.13;;;4.80;99.80;;;;;;5009496;28;20467;-72
2022/03/05 09:39:43;;;;;;;18.23;10.80;;;4.90;99.90;;;;;;5025664;28;20276;-68
2022/03/05 09:42:09;;;;;;;17.57;8.60;;;5.00;99.90;;;;;;5023294;28;20224;-70
2022/03/05 09:44:38;;;;;;;17.97;9.13;;;5.10;99.90;;;;;;5008983;28;20208;-69
2022/03/05 09:47:05;;;;;;;12.90;7.63;;;5.20;99.90;;;;;;5010109;28;20517;-69
2022/03/05 09:49:36;;;;;;;15.77;8.47;;;5.10;99.50;;;;;;5009383;28;20525;-69
2022/03/05 09:52:02;;;;;;;19.00;8.93;;;5.10;98.60;;;;;;5006604;28;20491;-69
2022/03/05 09:54:28;;;;;;;15.27;9.10;;;5.10;98.90;;;;;;5026923;28;20517;-70
2022/03/05 09:56:54;;;;;;;17.93;8.63;;;5.10;99.40;;;;;;5026176;28;20373;-69
2022/03/05 09:59:21;;;;;;;16.57;8.20;;;5.20;99.60;;;;;;5020009;28;20459;-69
2022/03/05 10:01:47;;;;;;;20.17;8.90;;;5.30;99.50;;;;;;5023427;28;20465;-69
2022/03/05 10:04:24;;;;;;;19.57;9.13;;;5.30;99.30;;;;;;5006571;28;20444;-69
2022/03/05 10:07:09;;;;;;;23.73;8.47;;;5.40;99.40;;;;;;5010714;28;20915;-69
2022/03/05 10:09:36;;;;;;;17.87;8.63;;;5.50;99.70;;;;;;5020484;28;20504;-68
2022/03/05 10:12:22;;;;;;;19.53;8.70;;;5.60;99.70;;;;;;5015668;28;20525;-70
2022/03/05 10:15:03;;;;;;;16.50;9.00;;;5.80;99.80;;;;;;5028173;28;20459;-70
2022/03/05 10:17:28;;;;;;;19.40;9.53;;;5.90;99.80;;;;;;5026171;28;20521;-69
2022/03/05 10:20:05;;;;;;;16.43;7.97;;;6.00;99.10;;;;;;5022158;28;20495;-69
2022/03/05 10:22:30;;;;;;;20.90;9.30;;;5.90;99.00;;;;;;5025767;28;20216;-69
2022/03/05 10:24:57;;;;;;;18.70;9.13;;;6.00;99.10;;;;;;5021649;28;20875;-69
2022/03/05 10:27:23;;;;;;;15.80;7.87;;;6.10;99.20;;;;;;5011418;28;20299;-70
2022/03/05 10:29:55;;;;;;;19.83;9.43;;;6.20;99.00;;;;;;5023396;28;20609;-68
2022/03/05 10:32:21;;;;;;;21.23;9.17;;;6.20;98.40;;;;;;5025186;28;20220;-69
2022/03/05 10:34:56;;;;;;;18.00;9.23;;;6.20;98.80;;;;;;5024899;28;20474;-70
2022/03/05 10:37:23;;;;;;;15.63;8.27;;;6.30;98.80;;;;;;5027498;28;20216;-71
2022/03/05 10:39:51;;;;;;;16.13;8.43;;;6.40;98.90;;;;;;5025411;28;20554;-70
2022/03/05 10:42:20;;;;;;;13.60;8.07;;;6.60;98.60;;;;;;5008477;28;20506;-70
2022/03/05 10:45:04;;;;;;;15.67;8.27;;;6.70;98.50;;;;;;5007300;28;20475;-70
2022/03/05 10:47:43;;;;;;;15.87;8.63;;;6.80;98.70;;;;;;5024784;28;20459;-69
2022/03/05 10:50:15;;;;;;;20.53;9.70;;;6.80;98.20;;;;;;5021822;28;20448;-71
2022/03/05 10:52:49;;;;;;;16.57;7.57;;;6.70;98.00;;;;;;5024619;28;20499;-71
2022/03/05 10:55:25;;;;;;;18.33;8.10;;;6.80;98.10;;;;;;5022092;28;20479;-71
2022/03/05 10:58:14;;;;;;;10.87;7.70;;;6.90;98.00;;;;;;5024118;28;20466;-70
2022/03/05 11:00:46;;;;;;;18.03;7.47;;;7.10;98.30;;;;;;4988853;28;20467;-69
2022/03/05 11:03:12;;;;;;;13.53;7.30;;;7.20;98.00;;;;;;4989551;28;20498;-69
2022/03/05 11:05:38;;;;;;;15.97;8.33;;;7.40;98.30;;;;;;5000404;28;20468;-69
2022/03/05 11:08:05;;;;;;;17.00;7.97;;;7.50;97.90;;;;;;5004512;28;20520;-69
2022/03/05 11:10:31;;;;;;;13.40;6.77;;;7.70;98.00;;;;;;5006685;28;20547;-70
2022/03/05 11:12:59;;;;;;;10.60;6.17;;;7.90;97.10;;;;;;5020467;28;20500;-70
2022/03/05 11:15:27;;;;;;;11.10;6.30;;;8.10;96.90;;;;;;5005766;28;20456;-70
2022/03/05 11:17:54;;;;;;;9.37;5.93;;;8.10;97.10;;;;;;5024334;28;20448;-69
2022/03/05 11:20:19;;;;;;;9.70;6.10;;;8.10;97.10;;;;;;5024223;28;20460;-68
2022/03/05 11:22:49;;;;;;;10.60;6.07;;;8.30;96.80;;;;;;5007710;28;20518;-68
2022/03/05 11:25:19;;;;;;;13.53;6.47;;;8.50;96.30;;;;;;4989314;28;20217;-68
2022/03/05 11:28:17;;;;;;;12.30;6.00;;;8.50;96.60;;;;;;5006198;28;20460;-68
2022/03/05 11:30:44;;;;;;;12.07;7.20;;;8.60;95.70;;;;;;4984461;28;20479;-70
2022/03/05 11:33:20;;;;;;;10.13;7.03;;;8.70;95.60;;;;;;4983613;28;20491;-69
2022/03/05 11:35:45;;;;;;;9.10;5.90;;;8.60;95.60;;;;;;4999308;28;20459;-69
2022/03/05 11:38:30;;;;;;;11.43;6.80;;;8.60;95.50;;;;;;4993383;28;20445;-68
2022/03/05 11:40:56;;;;;;;12.27;6.30;;;8.70;95.00;;;;;;5009689;28;20248;-68
2022/03/05 11:43:23;;;;;;;8.50;5.80;;;8.80;94.70;;;;;;4994798;28;20813;-70
2022/03/05 11:46:03;;;;;;;8.93;6.30;;;9.00;94.60;;;;;;5010232;28;20239;-70
2022/03/05 11:48:30;;;;;;;10.90;6.87;;;9.10;94.90;;;;;;5017775;28;21011;-69
2022/03/05 11:50:59;;;;;;;8.90;6.17;;;9.10;94.50;;;;;;5026265;28;20544;-70
2022/03/05 11:53:26;;;;;;;10.83;5.60;;;9.10;93.90;;;;;;5008663;28;20452;-68
2022/03/05 11:55:52;;;;;;;8.13;6.33;;;9.10;94.00;;;;;;5007827;28;20452;-68
2022/03/05 11:58:26;;;;;;;10.57;6.20;;;9.00;93.90;;;;;;4999557;28;20448;-69
2022/03/05 12:00:54;;;;;;;16.60;7.13;;;9.10;93.80;;;;;;5005339;28;20494;-69
2022/03/05 12:03:36;;;;;;;10.60;6.30;;;9.20;94.00;;;;;;5010945;28;20451;-69
2022/03/05 12:06:03;;;;;;;12.20;6.30;;;9.30;94.10;;;;;;5003904;28;20459;-69
2022/03/05 12:08:28;;;;;;;9.60;5.57;;;9.40;93.60;;;;;;5026966;28;20486;-69
2022/03/05 12:11:10;;;;;;;9.20;6.10;;;9.50;93.80;;;;;;5010096;28;20503;-71
2022/03/05 12:13:44;;;;;;;14.33;7.00;;;9.60;93.70;;;;;;5027215;28;20216;-72
2022/03/05 12:16:24;;;;;;;12.10;6.77;;;9.50;92.20;;;;;;5022401;28;20508;-69
2022/03/05 12:18:56;;;;;;;8.07;5.67;;;9.60;92.40;;;;;;5002940;28;20558;-71
2022/03/05 12:21:31;;;;;;;11.20;7.00;;;9.60;92.60;;;;;;5019206;28;20463;-71
2022/03/05 12:24:05;;;;;;;12.07;6.10;;;9.60;92.60;;;;;;5001316;28;20470;-69
2022/03/05 12:26:45;;;;;;;11.17;5.33;;;9.70;92.20;;;;;;5027537;28;20458;-70
2022/03/05 12:29:12;;;;;;;8.13;5.23;;;10.10;90.70;;;;;;5027772;28;20525;-69
2022/03/05 12:31:43;;;;;;;13.07;6.50;;;10.10;91.70;;;;;;5010389;28;20459;-69
2022/03/05 12:34:09;;;;;;;39.90;19.53;;;10.00;91.10;;;;;;5025520;28;20483;-69
2022/03/05 12:36:44;;;;;;;38.07;23.60;;;9.90;91.20;;;;;;5005333;28;20963;-71
2022/03/05 12:39:11;;;;;;;27.40;17.40;;;9.80;91.40;;;;;;5031205;28;20475;-68
2022/03/05 12:41:36;;;;;;;15.33;8.37;;;9.90;88.80;;;;;;5023214;28;20451;-69
2022/03/05 12:44:02;;;;;;;10.20;8.37;;;10.10;86.50;;;;;;5013089;28;20459;-69
2022/03/05 12:46:28;;;;;;;10.50;6.27;;;10.20;84.80;;;;;;5014623;28;20241;-69
2022/03/05 12:49:02;;;;;;;9.97;6.60;;;10.30;87.60;;;;;;5026173;28;20541;-69
2022/03/05 12:51:31;;;;;;;9.30;5.73;;;10.20;87.30;;;;;;5030320;28;20235;-69